No particular awareness of the weather is required.    There are no Weather-warnings


Meteo18 Weather Cam more information Meteo18 Weather Cam


Thunder radar more information blitzortung!


Rain radar more information rain snow radar


Visit our other weather sites:

Template documentation
and downloads

And another site



Weather Underground History page Text

Daily Summary for September 18, 2017 Units:  Both    English   Metric
« Previous Day
Next Day »
Daily Weekly Monthly Yearly Custom
  High: Low: Average:
Temperature: TemperatureC °F /  -17.8 °C 6.6 °F /  -14.1 °C 11 °F /  -11.7 °C
Dew Point: DewpointC °F /  -17.8 °C 6.2 °F /  -14.3 °C 8.6 °F /  -13 °C
Humidity: Humidity % 58 % 86 %
Wind Speed: WindSpeedKMH mph /  0 km/h - 3.4 mph /  5.5 km/h
Wind Gust: WindSpeedGustKMH mph /  0 km/h - -
Wind:- - WSW
Pressure: PressurehPa in /  0 hPa 1017.2 in /  34442.4 hPa -
Precipitation: 0.0 in /  0 mm    
Historical Graphs
 
 
Tabular Data for September 18, 2017
Time Temperature Dew Point Pressure Wind Wind Speed Wind Gust Humidity Rainfall Rate (Hourly)
TemperatureC °F /  -17.8 °C DewpointC °F /  -17.8 °C PressurehPa in /  0 hPa Calm     Humidity % HourlyPrecipMM in /  0 mm
00:02 10.0 °F /  -12.2 °C 9.2 °F /  -12.7 °C 1017.2 in /  34442.4 hPa Calm     95 % 0.0 in /  0 mm
00:07 10.0 °F /  -12.2 °C 9.2 °F /  -12.7 °C 1017.2 in /  34442.4 hPa Calm     95 % 0.0 in /  0 mm
00:12 9.9 °F /  -12.3 °C 9.1 °F /  -12.7 °C 1017.2 in /  34442.4 hPa Calm     95 % 0.0 in /  0 mm
00:17 9.8 °F /  -12.3 °C 8.9 °F /  -12.8 °C 1017.2 in /  34442.4 hPa Calm     94 % 0.0 in /  0 mm
00:22 9.7 °F /  -12.4 °C 8.9 °F /  -12.8 °C 1017.2 in /  34442.4 hPa Calm     95 % 0.0 in /  0 mm
00:32 9.7 °F /  -12.4 °C 8.9 °F /  -12.8 °C 1017.2 in /  34442.4 hPa Calm     95 % 0.0 in /  0 mm
00:42 9.6 °F /  -12.4 °C 8.8 °F /  -12.9 °C 1017.2 in /  34442.4 hPa Calm     95 % 0.0 in /  0 mm
00:52 9.6 °F /  -12.4 °C 8.8 °F /  -12.9 °C 1017.5 in /  34452.6 hPa WSW 1.6 mph /  2.6 km/h 3.2 mph /  5.1 km/h 95 % 0.0 in /  0 mm
00:57 9.7 °F /  -12.4 °C 8.9 °F /  -12.8 °C 1017.5 in /  34452.6 hPa SW 1.6 mph /  2.6 km/h 3.2 mph /  5.1 km/h 95 % 0.0 in /  0 mm
01:02 9.7 °F /  -12.4 °C 8.9 °F /  -12.8 °C 1017.5 in /  34452.6 hPa Calm   4.8 mph /  7.7 km/h 95 % 0.0 in /  0 mm
01:12 9.8 °F /  -12.3 °C 8.9 °F /  -12.8 °C 1017.5 in /  34452.6 hPa Calm   4.8 mph /  7.7 km/h 94 % 0.0 in /  0 mm
01:17 9.8 °F /  -12.3 °C 8.9 °F /  -12.8 °C 1017.2 in /  34442.4 hPa Calm   4.8 mph /  7.7 km/h 94 % 0.0 in /  0 mm
01:22 9.8 °F /  -12.3 °C 8.9 °F /  -12.8 °C 1017.2 in /  34442.4 hPa WSW 1.6 mph /  2.6 km/h 4.8 mph /  7.7 km/h 94 % 0.0 in /  0 mm
01:32 9.8 °F /  -12.3 °C 9.0 °F /  -12.8 °C 1017.5 in /  34452.6 hPa WSW 1.6 mph /  2.6 km/h 4.8 mph /  7.7 km/h 95 % 0.0 in /  0 mm
01:37 9.7 °F /  -12.4 °C 8.9 °F /  -12.8 °C 1017.5 in /  34452.6 hPa SW 1.6 mph /  2.6 km/h 4.8 mph /  7.7 km/h 95 % 0.0 in /  0 mm
01:42 9.7 °F /  -12.4 °C 8.9 °F /  -12.8 °C 1017.5 in /  34452.6 hPa SW 4.8 mph /  7.7 km/h 4.8 mph /  7.7 km/h 95 % 0.0 in /  0 mm
01:52 9.7 °F /  -12.4 °C 8.9 °F /  -12.8 °C 1017.5 in /  34452.6 hPa WSW 1.6 mph /  2.6 km/h 6.4 mph /  10.3 km/h 95 % 0.0 in /  0 mm
01:57 9.7 °F /  -12.4 °C 8.9 °F /  -12.8 °C 1017.5 in /  34452.6 hPa WSW 3.2 mph /  5.1 km/h 6.4 mph /  10.3 km/h 95 % 0.0 in /  0 mm
02:02 9.7 °F /  -12.4 °C 8.9 °F /  -12.8 °C 1017.5 in /  34452.6 hPa West 4.8 mph /  7.7 km/h 6.4 mph /  10.3 km/h 95 % 0.0 in /  0 mm
02:07 9.7 °F /  -12.4 °C 8.9 °F /  -12.8 °C 1017.5 in /  34452.6 hPa SW 3.2 mph /  5.1 km/h 6.4 mph /  10.3 km/h 95 % 0.0 in /  0 mm
02:12 9.7 °F /  -12.4 °C 8.9 °F /  -12.8 °C 1017.5 in /  34452.6 hPa SSW 3.2 mph /  5.1 km/h 6.4 mph /  10.3 km/h 95 % 0.0 in /  0 mm
02:17 9.6 °F /  -12.4 °C 8.8 °F /  -12.9 °C 1017.5 in /  34452.6 hPa SW 3.2 mph /  5.1 km/h 6.4 mph /  10.3 km/h 95 % 0.0 in /  0 mm
02:22 9.6 °F /  -12.4 °C 8.8 °F /  -12.9 °C 1017.5 in /  34452.6 hPa South 3.2 mph /  5.1 km/h 6.4 mph /  10.3 km/h 95 % 0.0 in /  0 mm
02:32 9.6 °F /  -12.4 °C 9.0 °F /  -12.8 °C 1017.5 in /  34452.6 hPa WSW 4.8 mph /  7.7 km/h 9.7 mph /  15.6 km/h 96 % 0.0 in /  0 mm
02:42 9.4 °F /  -12.6 °C 8.6 °F /  -13 °C 1017.5 in /  34452.6 hPa SW 6.4 mph /  10.3 km/h 6.4 mph /  10.3 km/h 95 % 0.0 in /  0 mm
02:47 9.4 °F /  -12.6 °C 8.8 °F /  -12.9 °C 1017.5 in /  34452.6 hPa West 4.8 mph /  7.7 km/h 9.7 mph /  15.6 km/h 96 % 0.0 in /  0 mm
02:52 9.3 °F /  -12.6 °C 8.7 °F /  -12.9 °C 1017.5 in /  34452.6 hPa WSW 4.8 mph /  7.7 km/h 9.7 mph /  15.6 km/h 96 % 0.0 in /  0 mm
02:57 9.3 °F /  -12.6 °C 8.7 °F /  -12.9 °C 1017.5 in /  34452.6 hPa SW 4.8 mph /  7.7 km/h 9.7 mph /  15.6 km/h 96 % 0.0 in /  0 mm
03:02 9.3 °F /  -12.6 °C 8.7 °F /  -12.9 °C 1017.5 in /  34452.6 hPa WSW 4.8 mph /  7.7 km/h 9.7 mph /  15.6 km/h 96 % 0.0 in /  0 mm
03:07 9.3 °F /  -12.6 °C 8.7 °F /  -12.9 °C 1017.5 in /  34452.6 hPa SW 1.6 mph /  2.6 km/h 6.4 mph /  10.3 km/h 96 % 0.0 in /  0 mm
03:12 9.3 °F /  -12.6 °C 8.7 °F /  -12.9 °C 1017.5 in /  34452.6 hPa SW 3.2 mph /  5.1 km/h 6.4 mph /  10.3 km/h 96 % 0.0 in /  0 mm
03:17 9.2 °F /  -12.7 °C 8.6 °F /  -13 °C 1017.5 in /  34452.6 hPa Calm   4.8 mph /  7.7 km/h 96 % 0.0 in /  0 mm
03:22 9.2 °F /  -12.7 °C 8.6 °F /  -13 °C 1017.5 in /  34452.6 hPa Calm   4.8 mph /  7.7 km/h 96 % 0.0 in /  0 mm
03:32 9.2 °F /  -12.7 °C 8.6 °F /  -13 °C 1017.5 in /  34452.6 hPa SW 3.2 mph /  5.1 km/h 4.8 mph /  7.7 km/h 96 % 0.0 in /  0 mm
03:37 9.2 °F /  -12.7 °C 8.6 °F /  -13 °C 1017.5 in /  34452.6 hPa SW 3.2 mph /  5.1 km/h 3.2 mph /  5.1 km/h 96 % 0.0 in /  0 mm
03:42 9.2 °F /  -12.7 °C 8.6 °F /  -13 °C 1017.5 in /  34452.6 hPa Calm   3.2 mph /  5.1 km/h 96 % 0.0 in /  0 mm
03:47 9.1 °F /  -12.7 °C 8.5 °F /  -13.1 °C 1017.5 in /  34452.6 hPa SW 1.6 mph /  2.6 km/h 3.2 mph /  5.1 km/h 96 % 0.0 in /  0 mm
03:52 9.1 °F /  -12.7 °C 8.5 °F /  -13.1 °C 1017.5 in /  34452.6 hPa WSW 1.6 mph /  2.6 km/h 3.2 mph /  5.1 km/h 96 % 0.0 in /  0 mm
04:02 9.0 °F /  -12.8 °C 8.4 °F /  -13.1 °C 1017.5 in /  34452.6 hPa SW 4.8 mph /  7.7 km/h 4.8 mph /  7.7 km/h 96 % 0.0 in /  0 mm
04:07 8.9 °F /  -12.8 °C 8.3 °F /  -13.2 °C 1017.5 in /  34452.6 hPa SW 3.2 mph /  5.1 km/h 4.8 mph /  7.7 km/h 96 % 0.0 in /  0 mm
04:12 8.9 °F /  -12.8 °C 8.3 °F /  -13.2 °C 1017.5 in /  34452.6 hPa SW 4.8 mph /  7.7 km/h 4.8 mph /  7.7 km/h 96 % 0.0 in /  0 mm
04:17 8.8 °F /  -12.9 °C 8.2 °F /  -13.2 °C 1017.5 in /  34452.6 hPa SW 4.8 mph /  7.7 km/h 6.4 mph /  10.3 km/h 96 % 0.0 in /  0 mm
04:22 8.7 °F /  -12.9 °C 8.1 °F /  -13.3 °C 1017.5 in /  34452.6 hPa SSW 1.6 mph /  2.6 km/h 6.4 mph /  10.3 km/h 96 % 0.0 in /  0 mm
04:27 8.7 °F /  -12.9 °C 8.1 °F /  -13.3 °C 1017.5 in /  34452.6 hPa WSW 3.2 mph /  5.1 km/h 6.4 mph /  10.3 km/h 96 % 0.0 in /  0 mm
04:32 8.6 °F /  -13 °C 8.0 °F /  -13.3 °C 1017.5 in /  34452.6 hPa SW 1.6 mph /  2.6 km/h 6.4 mph /  10.3 km/h 96 % 0.0 in /  0 mm
04:37 8.6 °F /  -13 °C 8.0 °F /  -13.3 °C 1017.5 in /  34452.6 hPa SW 3.2 mph /  5.1 km/h 6.4 mph /  10.3 km/h 96 % 0.0 in /  0 mm
04:42 8.5 °F /  -13.1 °C 7.9 °F /  -13.4 °C 1017.5 in /  34452.6 hPa Calm   6.4 mph /  10.3 km/h 96 % 0.0 in /  0 mm
04:47 8.4 °F /  -13.1 °C 7.8 °F /  -13.4 °C 1017.5 in /  34452.6 hPa SSW 3.2 mph /  5.1 km/h 8.0 mph /  12.9 km/h 96 % 0.0 in /  0 mm
04:52 8.4 °F /  -13.1 °C 7.8 °F /  -13.4 °C 1017.5 in /  34452.6 hPa WSW 6.4 mph /  10.3 km/h 8.0 mph /  12.9 km/h 96 % 0.0 in /  0 mm
04:57 8.3 °F /  -13.2 °C 7.7 °F /  -13.5 °C 1017.5 in /  34452.6 hPa Calm   8.0 mph /  12.9 km/h 96 % 0.0 in /  0 mm
05:02 8.2 °F /  -13.2 °C 7.6 °F /  -13.6 °C 1017.5 in /  34452.6 hPa Calm   8.0 mph /  12.9 km/h 96 % 0.0 in /  0 mm
05:17 7.9 °F /  -13.4 °C 7.3 °F /  -13.7 °C 1017.5 in /  34452.6 hPa Calm   1.6 mph /  2.6 km/h 96 % 0.0 in /  0 mm
05:27 7.9 °F /  -13.4 °C 7.3 °F /  -13.7 °C 1017.5 in /  34452.6 hPa Calm     96 % 0.0 in /  0 mm
05:32 7.8 °F /  -13.4 °C 7.2 °F /  -13.8 °C 1017.5 in /  34452.6 hPa Calm     96 % 0.0 in /  0 mm
05:37 7.8 °F /  -13.4 °C 7.2 °F /  -13.8 °C 1017.5 in /  34452.6 hPa Calm     96 % 0.0 in /  0 mm
05:42 7.7 °F /  -13.5 °C 7.1 °F /  -13.8 °C 1017.5 in /  34452.6 hPa Calm     96 % 0.0 in /  0 mm
05:47 7.7 °F /  -13.5 °C 7.1 °F /  -13.8 °C 1017.5 in /  34452.6 hPa Calm   3.2 mph /  5.1 km/h 96 % 0.0 in /  0 mm
05:52 7.6 °F /  -13.6 °C 7.0 °F /  -13.9 °C 1017.5 in /  34452.6 hPa Calm   3.2 mph /  5.1 km/h 96 % 0.0 in /  0 mm
06:02 7.5 °F /  -13.6 °C 6.9 °F /  -13.9 °C 1017.5 in /  34452.6 hPa Calm   1.6 mph /  2.6 km/h 96 % 0.0 in /  0 mm
06:07 7.5 °F /  -13.6 °C 6.9 °F /  -13.9 °C 1017.5 in /  34452.6 hPa Calm   1.6 mph /  2.6 km/h 96 % 0.0 in /  0 mm
06:12 7.4 °F /  -13.7 °C 6.8 °F /  -14 °C 1017.5 in /  34452.6 hPa Calm   1.6 mph /  2.6 km/h 96 % 0.0 in /  0 mm
06:17 7.4 °F /  -13.7 °C 6.8 °F /  -14 °C 1017.5 in /  34452.6 hPa Calm     96 % 0.0 in /  0 mm
06:22 7.3 °F /  -13.7 °C 6.7 °F /  -14.1 °C 1017.5 in /  34452.6 hPa Calm     96 % 0.0 in /  0 mm
06:32 7.3 °F /  -13.7 °C 6.7 °F /  -14.1 °C 1017.5 in /  34452.6 hPa Calm   1.6 mph /  2.6 km/h 96 % 0.0 in /  0 mm
06:37 7.3 °F /  -13.7 °C 6.9 °F /  -13.9 °C 1017.5 in /  34452.6 hPa Calm     97 % 0.0 in /  0 mm
06:42 7.3 °F /  -13.7 °C 6.9 °F /  -13.9 °C 1017.8 in /  34462.7 hPa SSW 3.2 mph /  5.1 km/h   97 % 0.0 in /  0 mm
06:47 7.2 °F /  -13.8 °C 6.6 °F /  -14.1 °C 1017.8 in /  34462.7 hPa SSW 1.6 mph /  2.6 km/h 3.2 mph /  5.1 km/h 96 % 0.0 in /  0 mm
06:52 7.2 °F /  -13.8 °C 6.6 °F /  -14.1 °C 1017.8 in /  34462.7 hPa SW 1.6 mph /  2.6 km/h 3.2 mph /  5.1 km/h 96 % 0.0 in /  0 mm
07:02 7.1 °F /  -13.8 °C 6.7 °F /  -14.1 °C 1017.8 in /  34462.7 hPa Calm   6.4 mph /  10.3 km/h 97 % 0.0 in /  0 mm
07:12 6.9 °F /  -13.9 °C 6.3 °F /  -14.3 °C 1017.8 in /  34462.7 hPa SW 3.2 mph /  5.1 km/h 3.2 mph /  5.1 km/h 96 % 0.0 in /  0 mm
07:17 6.8 °F /  -14 °C 6.2 °F /  -14.3 °C 1017.8 in /  34462.7 hPa Calm   4.8 mph /  7.7 km/h 96 % 0.0 in /  0 mm
07:22 6.8 °F /  -14 °C 6.4 °F /  -14.2 °C 1017.8 in /  34462.7 hPa Calm   4.8 mph /  7.7 km/h 97 % 0.0 in /  0 mm
07:32 6.7 °F /  -14.1 °C 6.3 °F /  -14.3 °C 1018.2 in /  34476.3 hPa SW 1.6 mph /  2.6 km/h 4.8 mph /  7.7 km/h 97 % 0.0 in /  0 mm
07:42 6.7 °F /  -14.1 °C 6.3 °F /  -14.3 °C 1018.2 in /  34476.3 hPa Calm   4.8 mph /  7.7 km/h 97 % 0.0 in /  0 mm
07:52 6.6 °F /  -14.1 °C 6.2 °F /  -14.3 °C 1018.2 in /  34476.3 hPa SW 1.6 mph /  2.6 km/h 4.8 mph /  7.7 km/h 97 % 0.0 in /  0 mm
07:57 6.7 °F /  -14.1 °C 6.3 °F /  -14.3 °C 1018.2 in /  34476.3 hPa Calm   4.8 mph /  7.7 km/h 97 % 0.0 in /  0 mm
08:02 6.7 °F /  -14.1 °C 6.3 °F /  -14.3 °C 1018.2 in /  34476.3 hPa SW 1.6 mph /  2.6 km/h 4.8 mph /  7.7 km/h 97 % 0.0 in /  0 mm
08:12 6.7 °F /  -14.1 °C 6.3 °F /  -14.3 °C 1018.5 in /  34486.4 hPa SSW 3.2 mph /  5.1 km/h 3.2 mph /  5.1 km/h 97 % 0.0 in /  0 mm
08:17 6.8 °F /  -14 °C 6.4 °F /  -14.2 °C 1018.5 in /  34486.4 hPa SW 1.6 mph /  2.6 km/h 4.8 mph /  7.7 km/h 97 % 0.0 in /  0 mm
08:22 6.7 °F /  -14.1 °C 6.3 °F /  -14.3 °C 1018.5 in /  34486.4 hPa WSW 4.8 mph /  7.7 km/h 4.8 mph /  7.7 km/h 97 % 0.0 in /  0 mm
08:32 6.8 °F /  -14 °C 6.4 °F /  -14.2 °C 1018.5 in /  34486.4 hPa SSE 1.6 mph /  2.6 km/h 6.4 mph /  10.3 km/h 97 % 0.0 in /  0 mm
08:42 6.7 °F /  -14.1 °C 6.3 °F /  -14.3 °C 1018.5 in /  34486.4 hPa SSW 3.2 mph /  5.1 km/h 8.0 mph /  12.9 km/h 97 % 0.0 in /  0 mm
08:52 6.7 °F /  -14.1 °C 6.3 °F /  -14.3 °C 1018.5 in /  34486.4 hPa WSW 3.2 mph /  5.1 km/h 8.0 mph /  12.9 km/h 97 % 0.0 in /  0 mm
08:57 6.6 °F /  -14.1 °C 6.2 °F /  -14.3 °C 1018.5 in /  34486.4 hPa WSW 3.2 mph /  5.1 km/h 8.0 mph /  12.9 km/h 97 % 0.0 in /  0 mm
09:02 6.6 °F /  -14.1 °C 6.2 °F /  -14.3 °C 1018.5 in /  34486.4 hPa SW 1.6 mph /  2.6 km/h 8.0 mph /  12.9 km/h 97 % 0.0 in /  0 mm
09:12 6.7 °F /  -14.1 °C 6.3 °F /  -14.3 °C 1018.8 in /  34496.6 hPa Calm   6.4 mph /  10.3 km/h 97 % 0.0 in /  0 mm
09:17 6.8 °F /  -14 °C 6.4 °F /  -14.2 °C 1018.8 in /  34496.6 hPa SSW 1.6 mph /  2.6 km/h 6.4 mph /  10.3 km/h 97 % 0.0 in /  0 mm
09:22 6.9 °F /  -13.9 °C 6.5 °F /  -14.2 °C 1018.8 in /  34496.6 hPa Calm   6.4 mph /  10.3 km/h 97 % 0.0 in /  0 mm
09:32 6.8 °F /  -14 °C 6.4 °F /  -14.2 °C 1018.8 in /  34496.6 hPa Calm   4.8 mph /  7.7 km/h 97 % 0.0 in /  0 mm
09:37 7.2 °F /  -13.8 °C 6.8 °F /  -14 °C 1018.8 in /  34496.6 hPa Calm   4.8 mph /  7.7 km/h 97 % 0.0 in /  0 mm
09:42 7.2 °F /  -13.8 °C 6.8 °F /  -14 °C 1018.8 in /  34496.6 hPa Calm   4.8 mph /  7.7 km/h 97 % 0.0 in /  0 mm
09:47 7.2 °F /  -13.8 °C 6.8 °F /  -14 °C 1018.8 in /  34496.6 hPa Calm   1.6 mph /  2.6 km/h 97 % 0.0 in /  0 mm
09:52 7.2 °F /  -13.8 °C 6.8 °F /  -14 °C 1018.8 in /  34496.6 hPa Calm   1.6 mph /  2.6 km/h 97 % 0.0 in /  0 mm
10:02 7.6 °F /  -13.6 °C 7.2 °F /  -13.8 °C 1018.8 in /  34496.6 hPa SSW 1.6 mph /  2.6 km/h 1.6 mph /  2.6 km/h 97 % 0.0 in /  0 mm
10:12 7.7 °F /  -13.5 °C 7.3 °F /  -13.7 °C 1018.8 in /  34496.6 hPa Calm   1.6 mph /  2.6 km/h 97 % 0.0 in /  0 mm
10:17 7.7 °F /  -13.5 °C 7.3 °F /  -13.7 °C 1018.8 in /  34496.6 hPa Calm   3.2 mph /  5.1 km/h 97 % 0.0 in /  0 mm
10:22 8.1 °F /  -13.3 °C 7.7 °F /  -13.5 °C 1018.8 in /  34496.6 hPa Calm   3.2 mph /  5.1 km/h 97 % 0.0 in /  0 mm
10:32 8.1 °F /  -13.3 °C 7.7 °F /  -13.5 °C 1018.8 in /  34496.6 hPa Calm   3.2 mph /  5.1 km/h 97 % 0.0 in /  0 mm
10:42 8.2 °F /  -13.2 °C 7.8 °F /  -13.4 °C 1018.8 in /  34496.6 hPa SW 3.2 mph /  5.1 km/h 4.8 mph /  7.7 km/h 97 % 0.0 in /  0 mm
10:52 8.4 °F /  -13.1 °C 8.0 °F /  -13.3 °C 1019.2 in /  34510.1 hPa SW 4.8 mph /  7.7 km/h 6.4 mph /  10.3 km/h 97 % 0.0 in /  0 mm
10:57 8.5 °F /  -13.1 °C 8.1 °F /  -13.3 °C 1019.2 in /  34510.1 hPa SSW 1.6 mph /  2.6 km/h 6.4 mph /  10.3 km/h 97 % 0.0 in /  0 mm
11:02 8.7 °F /  -12.9 °C 8.3 °F /  -13.2 °C 1019.2 in /  34510.1 hPa SW 1.6 mph /  2.6 km/h 6.4 mph /  10.3 km/h 97 % 0.0 in /  0 mm
11:12 9.1 °F /  -12.7 °C 8.6 °F /  -13 °C 1019.2 in /  34510.1 hPa Calm   4.8 mph /  7.7 km/h 97 % 0.0 in /  0 mm
11:17 9.1 °F /  -12.7 °C 8.6 °F /  -13 °C 1019.2 in /  34510.1 hPa SW 4.8 mph /  7.7 km/h 6.4 mph /  10.3 km/h 97 % 0.0 in /  0 mm
11:22 9.2 °F /  -12.7 °C 8.7 °F /  -12.9 °C 1019.2 in /  34510.1 hPa SW 1.6 mph /  2.6 km/h 6.4 mph /  10.3 km/h 97 % 0.0 in /  0 mm
11:32 9.4 °F /  -12.6 °C 8.9 °F /  -12.8 °C 1019.2 in /  34510.1 hPa SW 6.4 mph /  10.3 km/h 6.4 mph /  10.3 km/h 97 % 0.0 in /  0 mm
11:42 9.8 °F /  -12.3 °C 9.3 °F /  -12.6 °C 1019.2 in /  34510.1 hPa South 1.6 mph /  2.6 km/h 8.0 mph /  12.9 km/h 97 % 0.0 in /  0 mm
11:52 10.0 °F /  -12.2 °C 9.5 °F /  -12.5 °C 1019.2 in /  34510.1 hPa SW 6.4 mph /  10.3 km/h 8.0 mph /  12.9 km/h 97 % 0.0 in /  0 mm
12:02 10.1 °F /  -12.2 °C 9.5 °F /  -12.5 °C 1019.2 in /  34510.1 hPa SW 6.4 mph /  10.3 km/h 11.3 mph /  18.2 km/h 96 % 0.0 in /  0 mm
12:12 10.6 °F /  -11.9 °C 10.1 °F /  -12.2 °C 1019.2 in /  34510.1 hPa SSE 3.2 mph /  5.1 km/h 9.7 mph /  15.6 km/h 97 % 0.0 in /  0 mm
12:17 10.8 °F /  -11.8 °C 10.3 °F /  -12.1 °C 1019.2 in /  34510.1 hPa SSW 1.6 mph /  2.6 km/h 11.3 mph /  18.2 km/h 97 % 0.0 in /  0 mm
12:22 10.7 °F /  -11.8 °C 9.9 °F /  -12.3 °C 1019.2 in /  34510.1 hPa SW 4.8 mph /  7.7 km/h 11.3 mph /  18.2 km/h 95 % 0.0 in /  0 mm
12:27 10.7 °F /  -11.8 °C 10.1 °F /  -12.2 °C 1019.2 in /  34510.1 hPa South 9.7 mph /  15.6 km/h 11.3 mph /  18.2 km/h 96 % 0.0 in /  0 mm
12:32 11.0 °F /  -11.7 °C 10.4 °F /  -12 °C 1019.2 in /  34510.1 hPa SW 8.0 mph /  12.9 km/h 11.3 mph /  18.2 km/h 96 % 0.0 in /  0 mm
12:42 11.4 °F /  -11.4 °C 10.6 °F /  -11.9 °C 1019.2 in /  34510.1 hPa SSW 6.4 mph /  10.3 km/h 11.3 mph /  18.2 km/h 95 % 0.0 in /  0 mm
12:47 11.3 °F /  -11.5 °C 10.4 °F /  -12 °C 1019.2 in /  34510.1 hPa SW 8.0 mph /  12.9 km/h 12.9 mph /  20.8 km/h 94 % 0.0 in /  0 mm
12:52 11.5 °F /  -11.4 °C 10.4 °F /  -12 °C 1019.2 in /  34510.1 hPa SW 6.4 mph /  10.3 km/h 12.9 mph /  20.8 km/h 93 % 0.0 in /  0 mm
13:02 12.1 °F /  -11.1 °C 10.5 °F /  -11.9 °C 1019.2 in /  34510.1 hPa SSW 3.2 mph /  5.1 km/h 12.9 mph /  20.8 km/h 90 % 0.0 in /  0 mm
13:12 12.4 °F /  -10.9 °C 10.5 °F /  -11.9 °C 1019.2 in /  34510.1 hPa WSW 6.4 mph /  10.3 km/h 16.1 mph /  25.9 km/h 88 % 0.0 in /  0 mm
13:17 12.7 °F /  -10.7 °C 10.8 °F /  -11.8 °C 1019.2 in /  34510.1 hPa SSW 3.2 mph /  5.1 km/h 16.1 mph /  25.9 km/h 88 % 0.0 in /  0 mm
13:22 12.9 °F /  -10.6 °C 10.6 °F /  -11.9 °C 1019.2 in /  34510.1 hPa South 6.4 mph /  10.3 km/h 16.1 mph /  25.9 km/h 86 % 0.0 in /  0 mm
13:32 13.2 °F /  -10.4 °C 10.6 °F /  -11.9 °C 1019.2 in /  34510.1 hPa SW 9.7 mph /  15.6 km/h 14.5 mph /  23.3 km/h 84 % 0.0 in /  0 mm
13:42 13.3 °F /  -10.4 °C 10.8 °F /  -11.8 °C 1019.2 in /  34510.1 hPa South 11.3 mph /  18.2 km/h 14.5 mph /  23.3 km/h 85 % 0.0 in /  0 mm
13:52 13.1 °F /  -10.5 °C 10.5 °F /  -11.9 °C 1019.2 in /  34510.1 hPa SSW 6.4 mph /  10.3 km/h 17.7 mph /  28.5 km/h 84 % 0.0 in /  0 mm
13:57 13.1 °F /  -10.5 °C 10.5 °F /  -11.9 °C 1019.2 in /  34510.1 hPa South 4.8 mph /  7.7 km/h 17.7 mph /  28.5 km/h 84 % 0.0 in /  0 mm
14:02 13.3 °F /  -10.4 °C 10.5 °F /  -11.9 °C 1018.8 in /  34496.6 hPa South 9.7 mph /  15.6 km/h 17.7 mph /  28.5 km/h 83 % 0.0 in /  0 mm
14:12 13.7 °F /  -10.2 °C 11.2 °F /  -11.6 °C 1018.8 in /  34496.6 hPa SW 11.3 mph /  18.2 km/h 19.3 mph /  31.1 km/h 85 % 0.0 in /  0 mm
14:17 13.7 °F /  -10.2 °C 10.5 °F /  -11.9 °C 1018.8 in /  34496.6 hPa SW 8.0 mph /  12.9 km/h 19.3 mph /  31.1 km/h 81 % 0.0 in /  0 mm
14:27 13.8 °F /  -10.1 °C 10.8 °F /  -11.8 °C 1018.8 in /  34496.6 hPa WSW 12.9 mph /  20.8 km/h 17.7 mph /  28.5 km/h 82 % 0.0 in /  0 mm
14:32 13.9 °F /  -10.1 °C 10.7 °F /  -11.8 °C 1018.8 in /  34496.6 hPa SW 9.7 mph /  15.6 km/h 17.7 mph /  28.5 km/h 81 % 0.0 in /  0 mm
14:37 13.9 °F /  -10.1 °C 10.9 °F /  -11.7 °C 1018.8 in /  34496.6 hPa SSW 8.0 mph /  12.9 km/h 19.3 mph /  31.1 km/h 82 % 0.0 in /  0 mm
14:42 14.4 °F /  -9.8 °C 11.2 °F /  -11.6 °C 1018.8 in /  34496.6 hPa WSW 12.9 mph /  20.8 km/h 19.3 mph /  31.1 km/h 81 % 0.0 in /  0 mm
14:47 14.6 °F /  -9.7 °C 11.2 °F /  -11.6 °C 1018.8 in /  34496.6 hPa SSW 11.3 mph /  18.2 km/h 19.3 mph /  31.1 km/h 80 % 0.0 in /  0 mm
14:52 14.6 °F /  -9.7 °C 10.8 °F /  -11.8 °C 1018.8 in /  34496.6 hPa SSW 8.0 mph /  12.9 km/h 19.3 mph /  31.1 km/h 78 % 0.0 in /  0 mm
14:57 14.7 °F /  -9.6 °C 11.1 °F /  -11.6 °C 1018.8 in /  34496.6 hPa WNW 4.8 mph /  7.7 km/h 19.3 mph /  31.1 km/h 79 % 0.0 in /  0 mm
15:02 14.7 °F /  -9.6 °C 10.7 °F /  -11.8 °C 1018.8 in /  34496.6 hPa South 6.4 mph /  10.3 km/h 19.3 mph /  31.1 km/h 77 % 0.0 in /  0 mm
15:07 14.9 °F /  -9.5 °C 10.9 °F /  -11.7 °C 1018.8 in /  34496.6 hPa WSW 11.3 mph /  18.2 km/h 20.9 mph /  33.6 km/h 77 % 0.0 in /  0 mm
15:12 14.9 °F /  -9.5 °C 11.3 °F /  -11.5 °C 1018.8 in /  34496.6 hPa West 3.2 mph /  5.1 km/h 20.9 mph /  33.6 km/h 79 % 0.0 in /  0 mm
15:17 15.2 °F /  -9.3 °C 11.2 °F /  -11.6 °C 1018.8 in /  34496.6 hPa SW 14.5 mph /  23.3 km/h 20.9 mph /  33.6 km/h 77 % 0.0 in /  0 mm
15:22 15.3 °F /  -9.3 °C 10.5 °F /  -11.9 °C 1018.8 in /  34496.6 hPa WSW 8.0 mph /  12.9 km/h 17.7 mph /  28.5 km/h 73 % 0.0 in /  0 mm
15:27 15.3 °F /  -9.3 °C 11.1 °F /  -11.6 °C 1018.5 in /  34486.4 hPa SW 8.0 mph /  12.9 km/h 19.3 mph /  31.1 km/h 76 % 0.0 in /  0 mm
15:32 15.4 °F /  -9.2 °C 10.8 °F /  -11.8 °C 1018.5 in /  34486.4 hPa WSW 9.7 mph /  15.6 km/h 19.3 mph /  31.1 km/h 74 % 0.0 in /  0 mm
15:42 15.4 °F /  -9.2 °C 10.6 °F /  -11.9 °C 1018.5 in /  34486.4 hPa West 11.3 mph /  18.2 km/h 19.3 mph /  31.1 km/h 73 % 0.0 in /  0 mm
15:47 15.3 °F /  -9.3 °C 10.7 °F /  -11.8 °C 1018.5 in /  34486.4 hPa West 9.7 mph /  15.6 km/h 19.3 mph /  31.1 km/h 74 % 0.0 in /  0 mm
15:52 15.2 °F /  -9.3 °C 10.4 °F /  -12 °C 1018.5 in /  34486.4 hPa SW 4.8 mph /  7.7 km/h 19.3 mph /  31.1 km/h 73 % 0.0 in /  0 mm
16:02 15.4 °F /  -9.2 °C 9.7 °F /  -12.4 °C 1018.5 in /  34486.4 hPa West 3.2 mph /  5.1 km/h 19.3 mph /  31.1 km/h 69 % 0.0 in /  0 mm
16:07 15.7 °F /  -9.1 °C 9.6 °F /  -12.4 °C 1018.5 in /  34486.4 hPa West 16.1 mph /  25.9 km/h 17.7 mph /  28.5 km/h 67 % 0.0 in /  0 mm
16:12 15.7 °F /  -9.1 °C 9.6 °F /  -12.4 °C 1018.5 in /  34486.4 hPa West 6.4 mph /  10.3 km/h 17.7 mph /  28.5 km/h 67 % 0.0 in /  0 mm
16:17 16.0 °F /  -8.9 °C 9.7 °F /  -12.4 °C 1018.5 in /  34486.4 hPa West 6.4 mph /  10.3 km/h 17.7 mph /  28.5 km/h 66 % 0.0 in /  0 mm
16:22 16.0 °F /  -8.9 °C 9.0 °F /  -12.8 °C 1018.5 in /  34486.4 hPa WNW 12.9 mph /  20.8 km/h 17.7 mph /  28.5 km/h 63 % 0.0 in /  0 mm
16:32 15.4 °F /  -9.2 °C 9.1 °F /  -12.7 °C 1018.8 in /  34496.6 hPa WSW 8.0 mph /  12.9 km/h 16.1 mph /  25.9 km/h 66 % 0.0 in /  0 mm
16:37 15.6 °F /  -9.1 °C 9.5 °F /  -12.5 °C 1018.5 in /  34486.4 hPa WNW 9.7 mph /  15.6 km/h 17.7 mph /  28.5 km/h 67 % 0.0 in /  0 mm
16:42 15.8 °F /  -9 °C 9.9 °F /  -12.3 °C 1018.5 in /  34486.4 hPa West 14.5 mph /  23.3 km/h 17.7 mph /  28.5 km/h 68 % 0.0 in /  0 mm
16:52 15.8 °F /  -9 °C 9.7 °F /  -12.4 °C 1018.8 in /  34496.6 hPa WNW 12.9 mph /  20.8 km/h 19.3 mph /  31.1 km/h 67 % 0.0 in /  0 mm
17:02 15.3 °F /  -9.3 °C 9.2 °F /  -12.7 °C 1018.8 in /  34496.6 hPa WNW 8.0 mph /  12.9 km/h 19.3 mph /  31.1 km/h 67 % 0.0 in /  0 mm
17:07 15.3 °F /  -9.3 °C 9.2 °F /  -12.7 °C 1018.8 in /  34496.6 hPa WNW 11.3 mph /  18.2 km/h 19.3 mph /  31.1 km/h 67 % 0.0 in /  0 mm
17:12 15.7 °F /  -9.1 °C 10.0 °F /  -12.2 °C 1018.8 in /  34496.6 hPa West 6.4 mph /  10.3 km/h 19.3 mph /  31.1 km/h 69 % 0.0 in /  0 mm
17:17 15.8 °F /  -9 °C 9.5 °F /  -12.5 °C 1018.8 in /  34496.6 hPa SW 8.0 mph /  12.9 km/h 17.7 mph /  28.5 km/h 66 % 0.0 in /  0 mm
17:22 15.8 °F /  -9 °C 9.0 °F /  -12.8 °C 1018.8 in /  34496.6 hPa West 9.7 mph /  15.6 km/h 14.5 mph /  23.3 km/h 64 % 0.0 in /  0 mm
17:27 15.9 °F /  -8.9 °C 9.1 °F /  -12.7 °C 1018.8 in /  34496.6 hPa West 3.2 mph /  5.1 km/h 14.5 mph /  23.3 km/h 64 % 0.0 in /  0 mm
17:32 15.9 °F /  -8.9 °C 9.1 °F /  -12.7 °C 1018.5 in /  34486.4 hPa NW 3.2 mph /  5.1 km/h 14.5 mph /  23.3 km/h 64 % 0.0 in /  0 mm
17:37 16.3 °F /  -8.7 °C 9.5 °F /  -12.5 °C 1018.8 in /  34496.6 hPa Calm   14.5 mph /  23.3 km/h 64 % 0.0 in /  0 mm
17:42 16.5 °F /  -8.6 °C 8.5 °F /  -13.1 °C 1018.5 in /  34486.4 hPa West 11.3 mph /  18.2 km/h 11.3 mph /  18.2 km/h 59 % 0.0 in /  0 mm
17:47 16.3 °F /  -8.7 °C 8.8 °F /  -12.9 °C 1018.5 in /  34486.4 hPa West 8.0 mph /  12.9 km/h 12.9 mph /  20.8 km/h 61 % 0.0 in /  0 mm
17:52 16.1 °F /  -8.8 °C 8.6 °F /  -13 °C 1018.5 in /  34486.4 hPa SW 3.2 mph /  5.1 km/h 12.9 mph /  20.8 km/h 61 % 0.0 in /  0 mm
17:57 16.0 °F /  -8.9 °C 8.7 °F /  -12.9 °C 1018.5 in /  34486.4 hPa WNW 9.7 mph /  15.6 km/h 12.9 mph /  20.8 km/h 62 % 0.0 in /  0 mm
18:02 16.0 °F /  -8.9 °C 8.5 °F /  -13.1 °C 1018.8 in /  34496.6 hPa West 8.0 mph /  12.9 km/h 12.9 mph /  20.8 km/h 61 % 0.0 in /  0 mm
18:07 16.1 °F /  -8.8 °C 8.3 °F /  -13.2 °C 1018.5 in /  34486.4 hPa NW 1.6 mph /  2.6 km/h 12.9 mph /  20.8 km/h 60 % 0.0 in /  0 mm
18:12 16.2 °F /  -8.8 °C 8.4 °F /  -13.1 °C 1018.8 in /  34496.6 hPa WNW 4.8 mph /  7.7 km/h 12.9 mph /  20.8 km/h 60 % 0.0 in /  0 mm
18:17 16.3 °F /  -8.7 °C 8.3 °F /  -13.2 °C 1018.8 in /  34496.6 hPa West 4.8 mph /  7.7 km/h 12.9 mph /  20.8 km/h 59 % 0.0 in /  0 mm
18:22 16.3 °F /  -8.7 °C 8.0 °F /  -13.3 °C 1018.8 in /  34496.6 hPa WNW 3.2 mph /  5.1 km/h 11.3 mph /  18.2 km/h 58 % 0.0 in /  0 mm
18:27 16.4 °F /  -8.7 °C 8.4 °F /  -13.1 °C 1018.8 in /  34496.6 hPa NW 3.2 mph /  5.1 km/h 11.3 mph /  18.2 km/h 59 % 0.0 in /  0 mm
18:32 16.3 °F /  -8.7 °C 8.5 °F /  -13.1 °C 1018.8 in /  34496.6 hPa WNW 4.8 mph /  7.7 km/h 12.9 mph /  20.8 km/h 60 % 0.0 in /  0 mm
18:37 16.2 °F /  -8.8 °C 8.7 °F /  -12.9 °C 1018.8 in /  34496.6 hPa WNW 3.2 mph /  5.1 km/h 14.5 mph /  23.3 km/h 61 % 0.0 in /  0 mm
18:42 16.1 °F /  -8.8 °C 8.6 °F /  -13 °C 1018.8 in /  34496.6 hPa WNW 3.2 mph /  5.1 km/h 14.5 mph /  23.3 km/h 61 % 0.0 in /  0 mm
18:52 15.9 °F /  -8.9 °C 8.6 °F /  -13 °C 1018.8 in /  34496.6 hPa NW 3.2 mph /  5.1 km/h 12.9 mph /  20.8 km/h 62 % 0.0 in /  0 mm
18:57 16.1 °F /  -8.8 °C 8.8 °F /  -12.9 °C 1018.8 in /  34496.6 hPa West 1.6 mph /  2.6 km/h 9.7 mph /  15.6 km/h 62 % 0.0 in /  0 mm
19:02 16.0 °F /  -8.9 °C 9.0 °F /  -12.8 °C 1018.8 in /  34496.6 hPa WNW 3.2 mph /  5.1 km/h 9.7 mph /  15.6 km/h 63 % 0.0 in /  0 mm
19:12 15.3 °F /  -9.3 °C 9.0 °F /  -12.8 °C 1018.8 in /  34496.6 hPa WNW 1.6 mph /  2.6 km/h 4.8 mph /  7.7 km/h 66 % 0.0 in /  0 mm
19:17 15.0 °F /  -9.4 °C 9.1 °F /  -12.7 °C 1018.8 in /  34496.6 hPa WNW 3.2 mph /  5.1 km/h 4.8 mph /  7.7 km/h 68 % 0.0 in /  0 mm
19:22 14.7 °F /  -9.6 °C 9.1 °F /  -12.7 °C 1018.8 in /  34496.6 hPa West 3.2 mph /  5.1 km/h 4.8 mph /  7.7 km/h 69 % 0.0 in /  0 mm
19:27 14.5 °F /  -9.7 °C 9.1 °F /  -12.7 °C 1018.8 in /  34496.6 hPa WNW 3.2 mph /  5.1 km/h 4.8 mph /  7.7 km/h 70 % 0.0 in /  0 mm
19:32 14.3 °F /  -9.8 °C 8.9 °F /  -12.8 °C 1019.2 in /  34510.1 hPa WNW 3.2 mph /  5.1 km/h 4.8 mph /  7.7 km/h 70 % 0.0 in /  0 mm
19:37 14.0 °F /  -10 °C 8.6 °F /  -13 °C 1019.2 in /  34510.1 hPa WNW 4.8 mph /  7.7 km/h 6.4 mph /  10.3 km/h 70 % 0.0 in /  0 mm
19:42 13.8 °F /  -10.1 °C 8.6 °F /  -13 °C 1019.2 in /  34510.1 hPa West 3.2 mph /  5.1 km/h 6.4 mph /  10.3 km/h 71 % 0.0 in /  0 mm
19:47 13.7 °F /  -10.2 °C 8.7 °F /  -12.9 °C 1019.2 in /  34510.1 hPa Calm   4.8 mph /  7.7 km/h 72 % 0.0 in /  0 mm
19:52 13.4 °F /  -10.3 °C 8.9 °F /  -12.8 °C 1019.2 in /  34510.1 hPa Calm   4.8 mph /  7.7 km/h 74 % 0.0 in /  0 mm
20:02 12.8 °F /  -10.7 °C 9.1 °F /  -12.7 °C 1019.2 in /  34510.1 hPa West 1.6 mph /  2.6 km/h 3.2 mph /  5.1 km/h 78 % 0.0 in /  0 mm
20:07 12.6 °F /  -10.8 °C 9.1 °F /  -12.7 °C 1019.5 in /  34520.3 hPa WNW 1.6 mph /  2.6 km/h 3.2 mph /  5.1 km/h 79 % 0.0 in /  0 mm
20:12 12.4 °F /  -10.9 °C 9.0 °F /  -12.8 °C 1019.5 in /  34520.3 hPa WNW 1.6 mph /  2.6 km/h 3.2 mph /  5.1 km/h 80 % 0.0 in /  0 mm
20:17 12.3 °F /  -10.9 °C 9.1 °F /  -12.7 °C 1019.5 in /  34520.3 hPa Calm   3.2 mph /  5.1 km/h 81 % 0.0 in /  0 mm
20:22 12.2 °F /  -11 °C 9.2 °F /  -12.7 °C 1019.5 in /  34520.3 hPa WNW 4.8 mph /  7.7 km/h 4.8 mph /  7.7 km/h 82 % 0.0 in /  0 mm
20:27 12.1 °F /  -11.1 °C 9.1 °F /  -12.7 °C 1019.9 in /  34533.8 hPa Calm   4.8 mph /  7.7 km/h 82 % 0.0 in /  0 mm
20:32 12.2 °F /  -11 °C 9.0 °F /  -12.8 °C 1019.9 in /  34533.8 hPa Calm   4.8 mph /  7.7 km/h 81 % 0.0 in /  0 mm
20:42 12.4 °F /  -10.9 °C 9.0 °F /  -12.8 °C 1019.9 in /  34533.8 hPa NW 3.2 mph /  5.1 km/h 6.4 mph /  10.3 km/h 80 % 0.0 in /  0 mm
20:52 12.4 °F /  -10.9 °C 9.0 °F /  -12.8 °C 1020.2 in /  34544 hPa NW 3.2 mph /  5.1 km/h 6.4 mph /  10.3 km/h 80 % 0.0 in /  0 mm
21:02 12.4 °F /  -10.9 °C 9.0 °F /  -12.8 °C 1020.2 in /  34544 hPa West 1.6 mph /  2.6 km/h 6.4 mph /  10.3 km/h 80 % 0.0 in /  0 mm
21:07 12.4 °F /  -10.9 °C 9.0 °F /  -12.8 °C 1020.2 in /  34544 hPa WNW 1.6 mph /  2.6 km/h 4.8 mph /  7.7 km/h 80 % 0.0 in /  0 mm
21:12 12.4 °F /  -10.9 °C 9.0 °F /  -12.8 °C 1020.2 in /  34544 hPa Calm   4.8 mph /  7.7 km/h 80 % 0.0 in /  0 mm
21:27 12.5 °F /  -10.8 °C 9.3 °F /  -12.6 °C 1020.2 in /  34544 hPa NW 1.6 mph /  2.6 km/h 3.2 mph /  5.1 km/h 81 % 0.0 in /  0 mm
21:32 12.4 °F /  -10.9 °C 9.2 °F /  -12.7 °C 1020.2 in /  34544 hPa West 1.6 mph /  2.6 km/h 3.2 mph /  5.1 km/h 81 % 0.0 in /  0 mm
21:42 12.3 °F /  -10.9 °C 8.9 °F /  -12.8 °C 1020.2 in /  34544 hPa NW 1.6 mph /  2.6 km/h 4.8 mph /  7.7 km/h 80 % 0.0 in /  0 mm
21:52 12.2 °F /  -11 °C 8.9 °F /  -12.8 °C 1020.2 in /  34544 hPa NW 3.2 mph /  5.1 km/h 4.8 mph /  7.7 km/h 80 % 0.0 in /  0 mm
21:57 12.1 °F /  -11.1 °C 8.8 °F /  -12.9 °C 1020.2 in /  34544 hPa Calm   4.8 mph /  7.7 km/h 80 % 0.0 in /  0 mm
22:02 12.0 °F /  -11.1 °C 8.7 °F /  -12.9 °C 1020.2 in /  34544 hPa NNW 1.6 mph /  2.6 km/h 4.8 mph /  7.7 km/h 80 % 0.0 in /  0 mm
22:07 11.8 °F /  -11.2 °C 8.5 °F /  -13.1 °C 1020.2 in /  34544 hPa Calm   6.4 mph /  10.3 km/h 80 % 0.0 in /  0 mm
22:12 11.8 °F /  -11.2 °C 8.5 °F /  -13.1 °C 1020.2 in /  34544 hPa NW 1.6 mph /  2.6 km/h 6.4 mph /  10.3 km/h 80 % 0.0 in /  0 mm
22:17 11.7 °F /  -11.3 °C 8.4 °F /  -13.1 °C 1020.5 in /  34554.1 hPa Calm   4.8 mph /  7.7 km/h 80 % 0.0 in /  0 mm
22:27 11.6 °F /  -11.3 °C 8.5 °F /  -13.1 °C 1020.5 in /  34554.1 hPa NW 1.6 mph /  2.6 km/h 4.8 mph /  7.7 km/h 81 % 0.0 in /  0 mm
22:32 11.4 °F /  -11.4 °C 8.3 °F /  -13.2 °C 1020.5 in /  34554.1 hPa NW 3.2 mph /  5.1 km/h 4.8 mph /  7.7 km/h 81 % 0.0 in /  0 mm
22:37 11.4 °F /  -11.4 °C 8.4 °F /  -13.1 °C 1020.5 in /  34554.1 hPa North 1.6 mph /  2.6 km/h 4.8 mph /  7.7 km/h 82 % 0.0 in /  0 mm
22:42 11.2 °F /  -11.6 °C 8.4 °F /  -13.1 °C 1020.5 in /  34554.1 hPa Calm   4.8 mph /  7.7 km/h 83 % 0.0 in /  0 mm
22:57 10.6 °F /  -11.9 °C 8.2 °F /  -13.2 °C 1020.9 in /  34567.7 hPa NNW 1.6 mph /  2.6 km/h 3.2 mph /  5.1 km/h 85 % 0.0 in /  0 mm
23:02 10.6 °F /  -11.9 °C 8.4 °F /  -13.1 °C 1020.9 in /  34567.7 hPa Calm   3.2 mph /  5.1 km/h 86 % 0.0 in /  0 mm
23:12 10.6 °F /  -11.9 °C 8.2 °F /  -13.2 °C 1020.9 in /  34567.7 hPa Calm   4.8 mph /  7.7 km/h 85 % 0.0 in /  0 mm
23:17 10.6 °F /  -11.9 °C 8.4 °F /  -13.1 °C 1020.9 in /  34567.7 hPa NNW 3.2 mph /  5.1 km/h 4.8 mph /  7.7 km/h 86 % 0.0 in /  0 mm
23:22 10.4 °F /  -12 °C 8.2 °F /  -13.2 °C 1020.9 in /  34567.7 hPa North 1.6 mph /  2.6 km/h 4.8 mph /  7.7 km/h 86 % 0.0 in /  0 mm
23:27 10.3 °F /  -12.1 °C 8.2 °F /  -13.2 °C 1020.9 in /  34567.7 hPa NNE 3.2 mph /  5.1 km/h 4.8 mph /  7.7 km/h 87 % 0.0 in /  0 mm
23:32 10.2 °F /  -12.1 °C 8.1 °F /  -13.3 °C 1020.9 in /  34567.7 hPa NNW 1.6 mph /  2.6 km/h 4.8 mph /  7.7 km/h 87 % 0.0 in /  0 mm
23:37 10.2 °F /  -12.1 °C 8.1 °F /  -13.3 °C 1020.9 in /  34567.7 hPa Calm   4.8 mph /  7.7 km/h 87 % 0.0 in /  0 mm
23:42 10.2 °F /  -12.1 °C 8.1 °F /  -13.3 °C 1020.9 in /  34567.7 hPa Calm   4.8 mph /  7.7 km/h 87 % 0.0 in /  0 mm
23:47 10.3 °F /  -12.1 °C 8.1 °F /  -13.3 °C 1020.9 in /  34567.7 hPa Calm   3.2 mph /  5.1 km/h 86 % 0.0 in /  0 mm
23:52 10.3 °F /  -12.1 °C 8.1 °F /  -13.3 °C 1020.9 in /  34567.7 hPa Calm   1.6 mph /  2.6 km/h 86 % 0.0 in /  0 mm
23:57 10.4 °F /  -12 °C 8.2 °F /  -13.2 °C 1020.9 in /  34567.7 hPa Calm   1.6 mph /  2.6 km/h 86 % 0.0 in /  0 mm
Meteo18
Compliments of Weather Underground - 4 mb

Script developed by  Jim McMurry - jmcmurry@mwt.net Adapted for the template by  Wim van der Kuil - Leuven-Template.eu

You find our weather info also at:

European Weather Network

Weather Underground

Equipment we use:

Weather-station
Davis Vue

Weather-program
Meteobridge

Weather-server
Raspberry PI 2 B+

Provider
1 and 1

Davis Vue

Meteobridge

Raspberry PI 2 B+

1 and 1